This is the latest recevied weather packets stored in our database for station/object K5KVN. If no packets are shown the sender has not sent any weather packets the latest 10 day(s).
| Time | Temp. | Humidity | Pressure | Rain* | Wind** | Luminosity | Snow |
|---|---|---|---|---|---|---|---|
| 1787610881 | 27.78° C | 73% | 1015.5 hPa | 0 mm | - | - | - |
| 1787610282 | 27.78° C | 72% | 1015.5 hPa | 0 mm | - | - | - |
| 1787609680 | 27.78° C | 72% | 1015.5 hPa | 0 mm | - | - | - |
| 1787609079 | 28.33° C | 71% | 1015.4 hPa | 0 mm | - | - | - |
| 1787608478 | 28.33° C | 71% | 1015.3 hPa | 0 mm | - | - | - |
| 1787607880 | 28.89° C | 69% | 1015.2 hPa | 0 mm | - | - | - |
| 1787607280 | 28.89° C | 70% | 1015.3 hPa | 0 mm | - | - | - |
| 1787606678 | 28.89° C | 70% | 1015.2 hPa | 0 mm | - | - | - |
| 1787606077 | 28.89° C | 69% | 1015.2 hPa | 0 mm | - | - | - |
| 1787605477 | 30° C | 69% | 1015.3 hPa | 0 mm | - | - | - |
| 1787604878 | 28.89° C | 72% | 1015.5 hPa | 0 mm | - | - | - |
| 1787604276 | 28.89° C | 71% | 1015.7 hPa | 0 mm | - | - | - |
| 1787603674 | 28.89° C | 70% | 1015.9 hPa | 0 mm | - | - | - |
| 1787603074 | 28.89° C | 72% | 1016 hPa | 0 mm | - | - | - |
| 1787602474 | 28.33° C | 74% | 1016.1 hPa | 0 mm | - | - | - |
| 1787601875 | 28.33° C | 72% | 1016.4 hPa | 0 mm | - | - | - |
| 1787601275 | 28.33° C | 72% | 1016.5 hPa | 0 mm | - | - | - |
| 1787600673 | 28.33° C | 71% | 1016.6 hPa | 0 mm | - | - | - |
| 1787600073 | 28.33° C | 73% | 1016.6 hPa | 0 mm | - | - | - |
| 1787599534 | 28.33° C | 72% | 1016.5 hPa | 0 mm | - | - | - |
| 1787598871 | 28.33° C | 71% | 1016.3 hPa | 0 mm | - | - | - |
| 1787598330 | 28.33° C | 70% | 1016.3 hPa | 0 mm | - | - | - |
| 1787597668 | 28.89° C | 70% | 1016.1 hPa | 0 mm | - | - | - |
| 1787597067 | 28.33° C | 71% | 1016.3 hPa | 0 mm | - | - | - |
| 1787596467 | 28.33° C | 71% | 1016.4 hPa | 0 mm | - | - | - |
* Rain latest hour (hover to see other rain measurements)
** Current wind speed in m/s (hover to see current wind gust speed)